sensor_id;sensor_type;location;lat;lon;timestamp;pressure;altitude;pressure_sealevel;temperature
19061;BMP280;9663;48.996;8.334;2022-07-23T00:02:06;100131.78;;;29.55
19061;BMP280;9663;48.996;8.334;2022-07-23T00:04:33;100131.91;;;29.54
19061;BMP280;9663;48.996;8.334;2022-07-23T00:06:59;100128.47;;;29.53
19061;BMP280;9663;48.996;8.334;2022-07-23T00:09:25;100123.50;;;29.50
19061;BMP280;9663;48.996;8.334;2022-07-23T00:11:50;100133.09;;;29.50
19061;BMP280;9663;48.996;8.334;2022-07-23T00:14:16;100128.38;;;29.44
19061;BMP280;9663;48.996;8.334;2022-07-23T00:16:42;100136.47;;;29.41
19061;BMP280;9663;48.996;8.334;2022-07-23T00:19:08;100138.63;;;29.36
19061;BMP280;9663;48.996;8.334;2022-07-23T00:21:34;100143.28;;;29.32
19061;BMP280;9663;48.996;8.334;2022-07-23T00:24:00;100142.84;;;29.27
19061;BMP280;9663;48.996;8.334;2022-07-23T00:26:26;100154.34;;;29.25
19061;BMP280;9663;48.996;8.334;2022-07-23T00:28:51;100156.50;;;29.20
19061;BMP280;9663;48.996;8.334;2022-07-23T00:31:17;100159.50;;;29.16
19061;BMP280;9663;48.996;8.334;2022-07-23T00:33:43;100152.97;;;29.10
19061;BMP280;9663;48.996;8.334;2022-07-23T00:36:08;100155.13;;;29.05
19061;BMP280;9663;48.996;8.334;2022-07-23T00:38:34;100154.53;;;29.02
19061;BMP280;9663;48.996;8.334;2022-07-23T00:41:00;100153.97;;;28.98
19061;BMP280;9663;48.996;8.334;2022-07-23T00:43:25;100143.88;;;28.94
19061;BMP280;9663;48.996;8.334;2022-07-23T00:45:51;100144.28;;;28.89
19061;BMP280;9663;48.996;8.334;2022-07-23T00:48:17;100134.06;;;28.86
19061;BMP280;9663;48.996;8.334;2022-07-23T00:50:43;100134.44;;;28.82
19061;BMP280;9663;48.996;8.334;2022-07-23T00:53:09;100131.47;;;28.76
19061;BMP280;9663;48.996;8.334;2022-07-23T00:55:35;100142.28;;;28.71
19061;BMP280;9663;48.996;8.334;2022-07-23T00:58:02;100138.38;;;28.66
19061;BMP280;9663;48.996;8.334;2022-07-23T01:00:28;100130.19;;;28.59
19061;BMP280;9663;48.996;8.334;2022-07-23T01:02:54;100130.81;;;28.52
19061;BMP280;9663;48.996;8.334;2022-07-23T01:05:20;100132.94;;;28.47
19061;BMP280;9663;48.996;8.334;2022-07-23T01:07:49;100121.06;;;28.43
19061;BMP280;9663;48.996;8.334;2022-07-23T01:10:15;100115.16;;;28.41
19061;BMP280;9663;48.996;8.334;2022-07-23T01:12:57;100101.66;;;28.36
19061;BMP280;9663;48.996;8.334;2022-07-23T01:15:23;100103.78;;;28.31
19061;BMP280;9663;48.996;8.334;2022-07-23T01:17:50;100113.75;;;28.26
19061;BMP280;9663;48.996;8.334;2022-07-23T01:20:16;100129.63;;;28.23
19061;BMP280;9663;48.996;8.334;2022-07-23T01:22:42;100133.56;;;28.18
19061;BMP280;9663;48.996;8.334;2022-07-23T01:25:08;100139.00;;;28.15
19061;BMP280;9663;48.996;8.334;2022-07-23T01:27:34;100146.13;;;28.13
19061;BMP280;9663;48.996;8.334;2022-07-23T01:30:02;100152.38;;;28.10
19061;BMP280;9663;48.996;8.334;2022-07-23T01:32:28;100144.78;;;28.07
19061;BMP280;9663;48.996;8.334;2022-07-23T01:34:54;100136.47;;;28.02
19061;BMP280;9663;48.996;8.334;2022-07-23T01:37:20;100136.00;;;27.97
19061;BMP280;9663;48.996;8.334;2022-07-23T01:39:45;100133.88;;;27.92
19061;BMP280;9663;48.996;8.334;2022-07-23T01:42:11;100141.91;;;27.89
19061;BMP280;9663;48.996;8.334;2022-07-23T01:44:37;100148.31;;;27.85
19061;BMP280;9663;48.996;8.334;2022-07-23T01:47:02;100150.44;;;27.80
19061;BMP280;9663;48.996;8.334;2022-07-23T01:49:28;100153.50;;;27.74
19061;BMP280;9663;48.996;8.334;2022-07-23T01:51:54;100142.59;;;27.69
19061;BMP280;9663;48.996;8.334;2022-07-23T01:54:30;100138.69;;;27.63
19061;BMP280;9663;48.996;8.334;2022-07-23T01:56:57;100138.09;;;27.60
19061;BMP280;9663;48.996;8.334;2022-07-23T01:59:23;100130.72;;;27.54
19061;BMP280;9663;48.996;8.334;2022-07-23T02:01:50;100123.25;;;27.50
19061;BMP280;9663;48.996;8.334;2022-07-23T02:04:21;100122.63;;;27.46
19061;BMP280;9663;48.996;8.334;2022-07-23T02:06:47;100119.53;;;27.41
19061;BMP280;9663;48.996;8.334;2022-07-23T02:09:13;100113.84;;;27.36
19061;BMP280;9663;48.996;8.334;2022-07-23T02:11:39;100119.38;;;27.32
19061;BMP280;9663;48.996;8.334;2022-07-23T02:14:05;100134.41;;;27.28
19061;BMP280;9663;48.996;8.334;2022-07-23T02:16:31;100139.94;;;27.24
19061;BMP280;9663;48.996;8.334;2022-07-23T02:18:57;100151.41;;;27.21
19061;BMP280;9663;48.996;8.334;2022-07-23T02:21:23;100155.91;;;27.19
19061;BMP280;9663;48.996;8.334;2022-07-23T02:23:48;100158.84;;;27.15
19061;BMP280;9663;48.996;8.334;2022-07-23T02:26:14;100162.84;;;27.08
19061;BMP280;9663;48.996;8.334;2022-07-23T02:28:40;100156.31;;;27.03
19061;BMP280;9663;48.996;8.334;2022-07-23T02:31:06;100154.97;;;26.97
19061;BMP280;9663;48.996;8.334;2022-07-23T02:33:32;100157.78;;;26.94
19061;BMP280;9663;48.996;8.334;2022-07-23T02:35:59;100153.75;;;26.90
19061;BMP280;9663;48.996;8.334;2022-07-23T02:38:25;100151.38;;;26.87
19061;BMP280;9663;48.996;8.334;2022-07-23T02:40:50;100158.34;;;26.87
19061;BMP280;9663;48.996;8.334;2022-07-23T02:43:16;100162.91;;;26.83
19061;BMP280;9663;48.996;8.334;2022-07-23T02:45:42;100168.13;;;26.83
19061;BMP280;9663;48.996;8.334;2022-07-23T02:48:07;100180.28;;;26.83
19061;BMP280;9663;48.996;8.334;2022-07-23T02:50:33;100176.75;;;26.84
19061;BMP280;9663;48.996;8.334;2022-07-23T02:52:59;100187.16;;;26.84
19061;BMP280;9663;48.996;8.334;2022-07-23T02:55:25;100188.94;;;26.83
19061;BMP280;9663;48.996;8.334;2022-07-23T02:57:50;100194.88;;;26.85
19061;BMP280;9663;48.996;8.334;2022-07-23T03:00:16;100199.25;;;26.85
19061;BMP280;9663;48.996;8.334;2022-07-23T03:02:42;100191.53;;;26.83
19061;BMP280;9663;48.996;8.334;2022-07-23T03:05:08;100206.28;;;26.83
19061;BMP280;9663;48.996;8.334;2022-07-23T03:07:34;100199.56;;;26.80
19061;BMP280;9663;48.996;8.334;2022-07-23T03:10:00;100204.88;;;26.79
19061;BMP280;9663;48.996;8.334;2022-07-23T03:12:26;100207.47;;;26.79
19061;BMP280;9663;48.996;8.334;2022-07-23T03:14:51;100202.25;;;26.79
19061;BMP280;9663;48.996;8.334;2022-07-23T03:17:17;100199.56;;;26.80
19061;BMP280;9663;48.996;8.334;2022-07-23T03:19:43;100197.78;;;26.81
19061;BMP280;9663;48.996;8.334;2022-07-23T03:22:08;100212.34;;;26.83
19061;BMP280;9663;48.996;8.334;2022-07-23T03:24:34;100220.97;;;26.84
19061;BMP280;9663;48.996;8.334;2022-07-23T03:27:19;100212.69;;;26.79
19061;BMP280;9663;48.996;8.334;2022-07-23T03:29:45;100215.38;;;26.77
19061;BMP280;9663;48.996;8.334;2022-07-23T03:32:10;100214.44;;;26.78
19061;BMP280;9663;48.996;8.334;2022-07-23T03:34:36;100215.16;;;26.80
19061;BMP280;9663;48.996;8.334;2022-07-23T03:37:02;100215.06;;;26.82
19061;BMP280;9663;48.996;8.334;2022-07-23T03:39:28;100202.88;;;26.82
19061;BMP280;9663;48.996;8.334;2022-07-23T03:41:54;100199.34;;;26.83
19061;BMP280;9663;48.996;8.334;2022-07-23T03:44:19;100186.44;;;26.82
19061;BMP280;9663;48.996;8.334;2022-07-23T03:46:45;100198.50;;;26.83
19061;BMP280;9663;48.996;8.334;2022-07-23T03:49:11;100192.56;;;26.81
19061;BMP280;9663;48.996;8.334;2022-07-23T03:51:36;100189.97;;;26.81
19061;BMP280;9663;48.996;8.334;2022-07-23T03:54:02;100192.69;;;26.79
19061;BMP280;9663;48.996;8.334;2022-07-23T03:56:28;100211.97;;;26.77
19061;BMP280;9663;48.996;8.334;2022-07-23T03:58:53;100220.06;;;26.72
19061;BMP280;9663;48.996;8.334;2022-07-23T04:01:19;100230.19;;;26.64
19061;BMP280;9663;48.996;8.334;2022-07-23T04:03:45;100239.25;;;26.59
19061;BMP280;9663;48.996;8.334;2022-07-23T04:06:12;100244.97;;;26.52
19061;BMP280;9663;48.996;8.334;2022-07-23T04:08:37;100244.34;;;26.48
19061;BMP280;9663;48.996;8.334;2022-07-23T04:11:03;100238.53;;;26.45
19061;BMP280;9663;48.996;8.334;2022-07-23T04:13:29;100259.53;;;26.42
19061;BMP280;9663;48.996;8.334;2022-07-23T04:15:55;100246.66;;;26.40
19061;BMP280;9663;48.996;8.334;2022-07-23T04:18:20;100239.78;;;26.39
19061;BMP280;9663;48.996;8.334;2022-07-23T04:20:50;100230.13;;;26.41
19061;BMP280;9663;48.996;8.334;2022-07-23T04:23:17;100228.25;;;26.43
19061;BMP280;9663;48.996;8.334;2022-07-23T04:25:42;100234.06;;;26.47
19061;BMP280;9663;48.996;8.334;2022-07-23T04:28:08;100233.13;;;26.48
19061;BMP280;9663;48.996;8.334;2022-07-23T04:30:35;100246.94;;;26.48
19061;BMP280;9663;48.996;8.334;2022-07-23T04:33:01;100249.91;;;26.44
19061;BMP280;9663;48.996;8.334;2022-07-23T04:35:26;100249.38;;;26.39
19061;BMP280;9663;48.996;8.334;2022-07-23T04:37:52;100255.09;;;26.31
19061;BMP280;9663;48.996;8.334;2022-07-23T04:40:18;100262.16;;;26.29
19061;BMP280;9663;48.996;8.334;2022-07-23T04:42:44;100270.78;;;26.30
19061;BMP280;9663;48.996;8.334;2022-07-23T04:45:09;100277.56;;;26.32
19061;BMP280;9663;48.996;8.334;2022-07-23T04:47:35;100273.09;;;26.34
19061;BMP280;9663;48.996;8.334;2022-07-23T04:50:01;100273.81;;;26.36
19061;BMP280;9663;48.996;8.334;2022-07-23T04:52:26;100281.31;;;26.41
19061;BMP280;9663;48.996;8.334;2022-07-23T04:54:52;100278.41;;;26.45
19061;BMP280;9663;48.996;8.334;2022-07-23T04:57:18;100287.63;;;26.49
19061;BMP280;9663;48.996;8.334;2022-07-23T04:59:43;100290.97;;;26.51
19061;BMP280;9663;48.996;8.334;2022-07-23T05:02:09;100297.94;;;26.51
19061;BMP280;9663;48.996;8.334;2022-07-23T05:04:35;100307.72;;;26.47
19061;BMP280;9663;48.996;8.334;2022-07-23T05:07:00;100304.69;;;26.41
19061;BMP280;9663;48.996;8.334;2022-07-23T05:09:26;100298.78;;;26.39
19061;BMP280;9663;48.996;8.334;2022-07-23T05:11:52;100293.69;;;26.37
19061;BMP280;9663;48.996;8.334;2022-07-23T05:14:18;100297.63;;;26.43
19061;BMP280;9663;48.996;8.334;2022-07-23T05:16:43;100285.16;;;26.48
19061;BMP280;9663;48.996;8.334;2022-07-23T05:19:09;100267.34;;;26.54
19061;BMP280;9663;48.996;8.334;2022-07-23T05:21:35;100269.41;;;26.62
19061;BMP280;9663;48.996;8.334;2022-07-23T05:24:01;100279.91;;;26.72
19061;BMP280;9663;48.996;8.334;2022-07-23T05:26:26;100263.69;;;26.81
19061;BMP280;9663;48.996;8.334;2022-07-23T05:28:52;100255.84;;;26.94
19061;BMP280;9663;48.996;8.334;2022-07-23T05:31:18;100254.97;;;27.06
19061;BMP280;9663;48.996;8.334;2022-07-23T05:33:44;100259.44;;;27.16
19061;BMP280;9663;48.996;8.334;2022-07-23T05:36:10;100266.59;;;27.25
19061;BMP280;9663;48.996;8.334;2022-07-23T05:38:36;100269.47;;;27.33
19061;BMP280;9663;48.996;8.334;2022-07-23T05:41:02;100278.59;;;27.38
19061;BMP280;9663;48.996;8.334;2022-07-23T05:43:28;100290.81;;;27.38
19061;BMP280;9663;48.996;8.334;2022-07-23T05:45:54;100296.56;;;27.30
19061;BMP280;9663;48.996;8.334;2022-07-23T05:48:20;100293.69;;;27.22
19061;BMP280;9663;48.996;8.334;2022-07-23T05:50:47;100294.94;;;27.17
19061;BMP280;9663;48.996;8.334;2022-07-23T05:53:13;100300.25;;;27.15
19061;BMP280;9663;48.996;8.334;2022-07-23T05:55:39;100296.00;;;27.14
19061;BMP280;9663;48.996;8.334;2022-07-23T05:58:05;100298.50;;;27.16
19061;BMP280;9663;48.996;8.334;2022-07-23T06:00:31;100306.91;;;27.19
19061;BMP280;9663;48.996;8.334;2022-07-23T06:02:57;100315.44;;;27.21
19061;BMP280;9663;48.996;8.334;2022-07-23T06:05:23;100317.22;;;27.21
19061;BMP280;9663;48.996;8.334;2022-07-23T06:07:49;100314.94;;;27.16
19061;BMP280;9663;48.996;8.334;2022-07-23T06:10:15;100315.03;;;27.15
19061;BMP280;9663;48.996;8.334;2022-07-23T06:12:42;100313.50;;;27.12
19061;BMP280;9663;48.996;8.334;2022-07-23T06:15:08;100320.88;;;27.18
19061;BMP280;9663;48.996;8.334;2022-07-23T06:17:34;100323.75;;;27.26
19061;BMP280;9663;48.996;8.334;2022-07-23T06:20:00;100327.47;;;27.35
19061;BMP280;9663;48.996;8.334;2022-07-23T06:22:26;100349.44;;;27.43
19061;BMP280;9663;48.996;8.334;2022-07-23T06:24:51;100357.56;;;27.51
19061;BMP280;9663;48.996;8.334;2022-07-23T06:27:18;100357.16;;;27.57
19061;BMP280;9663;48.996;8.334;2022-07-23T06:29:44;100351.56;;;27.61
19061;BMP280;9663;48.996;8.334;2022-07-23T06:32:10;100357.19;;;27.68
19061;BMP280;9663;48.996;8.334;2022-07-23T06:34:35;100352.38;;;27.74
19061;BMP280;9663;48.996;8.334;2022-07-23T06:37:01;100349.94;;;27.84
19061;BMP280;9663;48.996;8.334;2022-07-23T06:39:27;100337.06;;;27.93
19061;BMP280;9663;48.996;8.334;2022-07-23T06:41:53;100331.97;;;28.02
19061;BMP280;9663;48.996;8.334;2022-07-23T06:44:19;100340.59;;;28.15
19061;BMP280;9663;48.996;8.334;2022-07-23T06:46:44;100358.19;;;28.24
19061;BMP280;9663;48.996;8.334;2022-07-23T06:49:10;100353.44;;;28.29
19061;BMP280;9663;48.996;8.334;2022-07-23T06:51:36;100359.88;;;28.36
19061;BMP280;9663;48.996;8.334;2022-07-23T06:54:02;100364.16;;;28.37
19061;BMP280;9663;48.996;8.334;2022-07-23T06:56:28;100361.66;;;28.36
19061;BMP280;9663;48.996;8.334;2022-07-23T06:58:54;100356.53;;;28.34
19061;BMP280;9663;48.996;8.334;2022-07-23T07:01:19;100356.53;;;28.34
19061;BMP280;9663;48.996;8.334;2022-07-23T07:03:45;100362.81;;;28.32
19061;BMP280;9663;48.996;8.334;2022-07-23T07:06:11;100369.22;;;28.28
19061;BMP280;9663;48.996;8.334;2022-07-23T07:08:37;100353.19;;;28.21
19061;BMP280;9663;48.996;8.334;2022-07-23T07:11:03;100361.00;;;28.21
19061;BMP280;9663;48.996;8.334;2022-07-23T07:13:29;100355.56;;;28.24
19061;BMP280;9663;48.996;8.334;2022-07-23T07:15:54;100358.06;;;28.26
19061;BMP280;9663;48.996;8.334;2022-07-23T07:18:20;100360.41;;;28.29
19061;BMP280;9663;48.996;8.334;2022-07-23T07:20:46;100368.25;;;28.29
19061;BMP280;9663;48.996;8.334;2022-07-23T07:23:12;100364.81;;;28.28
19061;BMP280;9663;48.996;8.334;2022-07-23T07:25:38;100359.81;;;28.25
19061;BMP280;9663;48.996;8.334;2022-07-23T07:28:04;100376.44;;;28.24
19061;BMP280;9663;48.996;8.334;2022-07-23T07:30:29;100373.22;;;28.21
19061;BMP280;9663;48.996;8.334;2022-07-23T07:32:55;100366.22;;;28.21
19061;BMP280;9663;48.996;8.334;2022-07-23T07:35:21;100374.31;;;28.29
19061;BMP280;9663;48.996;8.334;2022-07-23T07:37:46;100377.91;;;28.39
19061;BMP280;9663;48.996;8.334;2022-07-23T07:40:12;100370.34;;;28.47
19061;BMP280;9663;48.996;8.334;2022-07-23T07:42:51;100366.19;;;28.55
19061;BMP280;9663;48.996;8.334;2022-07-23T07:45:20;100372.06;;;28.70
19061;BMP280;9663;48.996;8.334;2022-07-23T07:47:45;100375.84;;;28.87
19061;BMP280;9663;48.996;8.334;2022-07-23T07:50:11;100379.53;;;29.07
19061;BMP280;9663;48.996;8.334;2022-07-23T07:52:37;100391.69;;;29.29
19061;BMP280;9663;48.996;8.334;2022-07-23T07:55:08;100384.03;;;29.48
19061;BMP280;9663;48.996;8.334;2022-07-23T07:57:35;100383.31;;;29.57
19061;BMP280;9663;48.996;8.334;2022-07-23T08:00:01;100373.47;;;29.61
19061;BMP280;9663;48.996;8.334;2022-07-23T08:02:27;100386.41;;;29.62
19061;BMP280;9663;48.996;8.334;2022-07-23T08:04:53;100383.91;;;29.61
19061;BMP280;9663;48.996;8.334;2022-07-23T08:07:19;100373.34;;;29.62
19061;BMP280;9663;48.996;8.334;2022-07-23T08:09:44;100381.63;;;29.67
19061;BMP280;9663;48.996;8.334;2022-07-23T08:12:10;100388.03;;;29.74
19061;BMP280;9663;48.996;8.334;2022-07-23T08:14:36;100388.28;;;29.82
19061;BMP280;9663;48.996;8.334;2022-07-23T08:17:01;100399.91;;;29.89
19061;BMP280;9663;48.996;8.334;2022-07-23T08:19:27;100397.88;;;29.92
19061;BMP280;9663;48.996;8.334;2022-07-23T08:21:53;100402.03;;;29.95
19061;BMP280;9663;48.996;8.334;2022-07-23T08:24:18;100396.44;;;29.99
19061;BMP280;9663;48.996;8.334;2022-07-23T08:26:44;100399.50;;;30.04
19061;BMP280;9663;48.996;8.334;2022-07-23T08:29:10;100401.25;;;30.14
19061;BMP280;9663;48.996;8.334;2022-07-23T08:31:35;100397.47;;;30.28
19061;BMP280;9663;48.996;8.334;2022-07-23T08:34:01;100397.34;;;30.40
19061;BMP280;9663;48.996;8.334;2022-07-23T08:36:28;100400.72;;;30.52
19061;BMP280;9663;48.996;8.334;2022-07-23T08:38:58;100402.13;;;30.56
19061;BMP280;9663;48.996;8.334;2022-07-23T08:41:25;100400.91;;;30.59
19061;BMP280;9663;48.996;8.334;2022-07-23T08:43:51;100397.78;;;30.65
19061;BMP280;9663;48.996;8.334;2022-07-23T08:46:19;100400.59;;;30.73
19061;BMP280;9663;48.996;8.334;2022-07-23T08:48:48;100406.81;;;30.82
19061;BMP280;9663;48.996;8.334;2022-07-23T08:51:14;100398.09;;;30.92
19061;BMP280;9663;48.996;8.334;2022-07-23T08:53:41;100401.00;;;30.99
19061;BMP280;9663;48.996;8.334;2022-07-23T08:56:08;100394.84;;;31.00
19061;BMP280;9663;48.996;8.334;2022-07-23T08:58:34;100396.34;;;31.02
19061;BMP280;9663;48.996;8.334;2022-07-23T09:01:01;100395.69;;;31.09
19061;BMP280;9663;48.996;8.334;2022-07-23T09:03:36;100397.38;;;31.20
19061;BMP280;9663;48.996;8.334;2022-07-23T09:06:04;100398.81;;;31.33
19061;BMP280;9663;48.996;8.334;2022-07-23T09:08:41;100401.88;;;31.38
19061;BMP280;9663;48.996;8.334;2022-07-23T09:11:13;100399.56;;;31.45
19061;BMP280;9663;48.996;8.334;2022-07-23T09:13:53;100407.97;;;31.48
19061;BMP280;9663;48.996;8.334;2022-07-23T09:16:31;100399.47;;;31.55
19061;BMP280;9663;48.996;8.334;2022-07-23T09:19:06;100393.25;;;31.66
19061;BMP280;9663;48.996;8.334;2022-07-23T09:21:35;100394.13;;;31.76
19061;BMP280;9663;48.996;8.334;2022-07-23T09:24:07;100391.25;;;31.88
19061;BMP280;9663;48.996;8.334;2022-07-23T09:26:40;100385.31;;;31.95
19061;BMP280;9663;48.996;8.334;2022-07-23T09:29:24;100386.59;;;32.01
19061;BMP280;9663;48.996;8.334;2022-07-23T09:32:01;100388.50;;;32.08
19061;BMP280;9663;48.996;8.334;2022-07-23T09:34:33;100379.78;;;32.27
19061;BMP280;9663;48.996;8.334;2022-07-23T09:37:16;100381.63;;;32.45
19061;BMP280;9663;48.996;8.334;2022-07-23T09:39:45;100391.13;;;32.55
19061;BMP280;9663;48.996;8.334;2022-07-23T09:42:23;100382.13;;;32.67
19061;BMP280;9663;48.996;8.334;2022-07-23T09:44:55;100387.22;;;32.78
19061;BMP280;9663;48.996;8.334;2022-07-23T09:47:24;100376.97;;;32.84
19061;BMP280;9663;48.996;8.334;2022-07-23T09:50:09;100381.50;;;32.92
19061;BMP280;9663;48.996;8.334;2022-07-23T09:52:55;100377.34;;;32.99
19061;BMP280;9663;48.996;8.334;2022-07-23T09:55:32;100373.59;;;33.01
19061;BMP280;9663;48.996;8.334;2022-07-23T09:58:06;100378.72;;;33.03
19061;BMP280;9663;48.996;8.334;2022-07-23T10:00:41;100381.88;;;33.06
19061;BMP280;9663;48.996;8.334;2022-07-23T10:03:09;100376.88;;;33.13
19061;BMP280;9663;48.996;8.334;2022-07-23T10:05:37;100380.72;;;33.18
19061;BMP280;9663;48.996;8.334;2022-07-23T10:08:03;100384.72;;;33.22
19061;BMP280;9663;48.996;8.334;2022-07-23T10:10:31;100386.31;;;33.32
19061;BMP280;9663;48.996;8.334;2022-07-23T10:12:57;100397.78;;;33.41
19061;BMP280;9663;48.996;8.334;2022-07-23T10:15:41;100379.38;;;33.41
19061;BMP280;9663;48.996;8.334;2022-07-23T10:18:09;100382.53;;;33.44
19061;BMP280;9663;48.996;8.334;2022-07-23T10:20:35;100384.75;;;33.49
19061;BMP280;9663;48.996;8.334;2022-07-23T10:23:23;100384.53;;;33.60
19061;BMP280;9663;48.996;8.334;2022-07-23T10:26:05;100380.94;;;33.78
19061;BMP280;9663;48.996;8.334;2022-07-23T10:28:50;100384.38;;;33.88
19061;BMP280;9663;48.996;8.334;2022-07-23T10:31:38;100380.97;;;33.95
19061;BMP280;9663;48.996;8.334;2022-07-23T10:34:34;100376.00;;;34.09
19061;BMP280;9663;48.996;8.334;2022-07-23T10:37:17;100381.78;;;34.30
19061;BMP280;9663;48.996;8.334;2022-07-23T10:40:16;100382.72;;;34.39
19061;BMP280;9663;48.996;8.334;2022-07-23T10:42:47;100380.81;;;34.49
19061;BMP280;9663;48.996;8.334;2022-07-23T10:45:36;100376.72;;;34.54
19061;BMP280;9663;48.996;8.334;2022-07-23T10:48:26;100382.41;;;34.67
19061;BMP280;9663;48.996;8.334;2022-07-23T10:51:14;100367.66;;;34.82
19061;BMP280;9663;48.996;8.334;2022-07-23T10:53:54;100369.44;;;34.98
19061;BMP280;9663;48.996;8.334;2022-07-23T10:56:50;100361.00;;;34.95
19061;BMP280;9663;48.996;8.334;2022-07-23T10:59:16;100367.44;;;34.93
19061;BMP280;9663;48.996;8.334;2022-07-23T11:01:42;100369.34;;;34.83
19061;BMP280;9663;48.996;8.334;2022-07-23T11:04:08;100364.69;;;34.77
19061;BMP280;9663;48.996;8.334;2022-07-23T11:09:28;100368.91;;;34.95
19061;BMP280;9663;48.996;8.334;2022-07-23T11:17:38;100371.78;;;35.42
19061;BMP280;9663;48.996;8.334;2022-07-23T11:27:53;100373.59;;;35.42
19061;BMP280;9663;48.996;8.334;2022-07-23T11:33:18;100364.25;;;35.55
19061;BMP280;9663;48.996;8.334;2022-07-23T11:35:47;100366.75;;;35.73
19061;BMP280;9663;48.996;8.334;2022-07-23T11:38:18;100367.00;;;36.34
19061;BMP280;9663;48.996;8.334;2022-07-23T11:40:49;100363.69;;;37.18
19061;BMP280;9663;48.996;8.334;2022-07-23T11:43:15;100358.63;;;37.99
19061;BMP280;9663;48.996;8.334;2022-07-23T11:45:49;100353.63;;;38.92
19061;BMP280;9663;48.996;8.334;2022-07-23T11:48:24;100345.09;;;39.74
19061;BMP280;9663;48.996;8.334;2022-07-23T11:50:52;100350.13;;;40.31
19061;BMP280;9663;48.996;8.334;2022-07-23T11:53:33;100344.06;;;40.65
19061;BMP280;9663;48.996;8.334;2022-07-23T11:56:11;100353.69;;;40.72
19061;BMP280;9663;48.996;8.334;2022-07-23T11:58:38;100348.69;;;41.23
19061;BMP280;9663;48.996;8.334;2022-07-23T12:01:05;100331.25;;;42.00
19061;BMP280;9663;48.996;8.334;2022-07-23T12:03:31;100329.22;;;42.59
19061;BMP280;9663;48.996;8.334;2022-07-23T12:06:00;100329.53;;;43.01
19061;BMP280;9663;48.996;8.334;2022-07-23T12:08:26;100322.50;;;43.13
19061;BMP280;9663;48.996;8.334;2022-07-23T12:10:52;100318.78;;;42.51
19061;BMP280;9663;48.996;8.334;2022-07-23T12:13:20;100320.19;;;41.83
19061;BMP280;9663;48.996;8.334;2022-07-23T12:15:57;100317.69;;;41.56
19061;BMP280;9663;48.996;8.334;2022-07-23T12:18:26;100317.38;;;41.25
19061;BMP280;9663;48.996;8.334;2022-07-23T12:20:56;100316.75;;;41.23
19061;BMP280;9663;48.996;8.334;2022-07-23T12:23:25;100316.44;;;41.52
19061;BMP280;9663;48.996;8.334;2022-07-23T12:25:52;100314.47;;;41.93
19061;BMP280;9663;48.996;8.334;2022-07-23T12:28:31;100319.78;;;42.44
19061;BMP280;9663;48.996;8.334;2022-07-23T12:30:58;100297.19;;;43.22
19061;BMP280;9663;48.996;8.334;2022-07-23T12:33:32;100306.66;;;43.62
19061;BMP280;9663;48.996;8.334;2022-07-23T12:36:01;100297.41;;;43.64
19061;BMP280;9663;48.996;8.334;2022-07-23T12:38:39;100299.72;;;43.54
19061;BMP280;9663;48.996;8.334;2022-07-23T12:41:06;100292.31;;;43.56
19061;BMP280;9663;48.996;8.334;2022-07-23T12:43:36;100296.19;;;43.23
19061;BMP280;9663;48.996;8.334;2022-07-23T12:46:22;100292.66;;;43.29
19061;BMP280;9663;48.996;8.334;2022-07-23T12:51:17;100306.00;;;44.21
19061;BMP280;9663;48.996;8.334;2022-07-23T12:54:13;100297.97;;;44.63
19061;BMP280;9663;48.996;8.334;2022-07-23T12:56:44;100302.94;;;44.42
19061;BMP280;9663;48.996;8.334;2022-07-23T12:59:14;100299.94;;;44.32
19061;BMP280;9663;48.996;8.334;2022-07-23T13:01:54;100296.19;;;44.57
19061;BMP280;9663;48.996;8.334;2022-07-23T13:04:22;100297.69;;;44.89
19061;BMP280;9663;48.996;8.334;2022-07-23T13:06:52;100290.19;;;45.15
19061;BMP280;9663;48.996;8.334;2022-07-23T13:09:25;100295.94;;;45.30
19061;BMP280;9663;48.996;8.334;2022-07-23T13:11:53;100289.41;;;45.55
19061;BMP280;9663;48.996;8.334;2022-07-23T13:14:21;100286.41;;;45.34
19061;BMP280;9663;48.996;8.334;2022-07-23T13:16:51;100296.94;;;45.00
19061;BMP280;9663;48.996;8.334;2022-07-23T13:19:18;100286.19;;;44.53
19061;BMP280;9663;48.996;8.334;2022-07-23T13:21:44;100302.66;;;44.25
19061;BMP280;9663;48.996;8.334;2022-07-23T13:24:11;100291.31;;;44.30
19061;BMP280;9663;48.996;8.334;2022-07-23T13:26:38;100301.22;;;44.47
19061;BMP280;9663;48.996;8.334;2022-07-23T13:29:05;100294.56;;;45.10
19061;BMP280;9663;48.996;8.334;2022-07-23T13:31:32;100290.81;;;45.58
19061;BMP280;9663;48.996;8.334;2022-07-23T13:33:57;100288.13;;;45.87
19061;BMP280;9663;48.996;8.334;2022-07-23T13:36:23;100281.28;;;46.25
19061;BMP280;9663;48.996;8.334;2022-07-23T13:38:49;100288.09;;;46.44
19061;BMP280;9663;48.996;8.334;2022-07-23T13:41:17;100286.44;;;46.88
19061;BMP280;9663;48.996;8.334;2022-07-23T13:43:43;100280.66;;;47.35
19061;BMP280;9663;48.996;8.334;2022-07-23T13:46:09;100275.66;;;46.99
19061;BMP280;9663;48.996;8.334;2022-07-23T13:48:35;100288.97;;;46.33
19061;BMP280;9663;48.996;8.334;2022-07-23T13:51:01;100288.22;;;45.92
19061;BMP280;9663;48.996;8.334;2022-07-23T13:53:27;100292.13;;;45.78
19061;BMP280;9663;48.996;8.334;2022-07-23T13:55:53;100291.97;;;45.61
19061;BMP280;9663;48.996;8.334;2022-07-23T13:58:21;100299.47;;;45.42
19061;BMP280;9663;48.996;8.334;2022-07-23T14:00:51;100297.41;;;44.79
19061;BMP280;9663;48.996;8.334;2022-07-23T14:03:18;100284.13;;;43.82
19061;BMP280;9663;48.996;8.334;2022-07-23T14:05:45;100291.78;;;42.85
19061;BMP280;9663;48.996;8.334;2022-07-23T14:08:11;100297.88;;;42.16
19061;BMP280;9663;48.996;8.334;2022-07-23T14:10:37;100290.09;;;41.89
19061;BMP280;9663;48.996;8.334;2022-07-23T14:13:03;100289.88;;;41.71
19061;BMP280;9663;48.996;8.334;2022-07-23T14:15:31;100291.06;;;41.50
19061;BMP280;9663;48.996;8.334;2022-07-23T14:17:57;100279.97;;;41.40
19061;BMP280;9663;48.996;8.334;2022-07-23T14:20:23;100284.47;;;41.46
19061;BMP280;9663;48.996;8.334;2022-07-23T14:22:49;100285.97;;;41.67
19061;BMP280;9663;48.996;8.334;2022-07-23T14:25:16;100280.66;;;41.87
19061;BMP280;9663;48.996;8.334;2022-07-23T14:27:45;100284.16;;;42.00
19061;BMP280;9663;48.996;8.334;2022-07-23T14:30:11;100272.69;;;42.25
19061;BMP280;9663;48.996;8.334;2022-07-23T14:32:37;100275.19;;;42.83
19061;BMP280;9663;48.996;8.334;2022-07-23T14:35:05;100266.63;;;43.86
19061;BMP280;9663;48.996;8.334;2022-07-23T14:37:31;100272.13;;;44.75